Time;durP1;ratioP1;P1;durP2;ratioP2;P2;SDS_P1;SDS_P2;PMS_P1;PMS_P2;Temp;Humidity;BMP_temperature;BMP_pressure;BME280_temperature;BME280_humidity;BME280_pressure;Samples;Min_cycle;Max_cycle;Signal;HPM_P1;HPM_P2
2023/05/27 00:00:33;;;;;;;12.35;9.77;;;;;;;16.12;88.77;95123.22;5053992;28;20293;-63
2023/05/27 00:03:00;;;;;;;13.10;11.80;;;;;;;15.99;90.32;95128.22;5053342;28;20195;-62
2023/05/27 00:05:27;;;;;;;20.13;13.45;;;;;;;15.67;91.59;95118.00;5051352;28;20572;-63
2023/05/27 00:07:56;;;;;;;13.25;11.80;;;;;;;15.53;92.99;95122.09;5054224;28;20323;-62
2023/05/27 00:10:23;;;;;;;11.25;10.07;;;;;;;15.46;93.30;95128.44;5052556;28;20719;-62
2023/05/27 00:12:49;;;;;;;12.77;11.57;;;;;;;15.31;94.55;95124.94;5053899;28;20307;-63
2023/05/27 00:15:17;;;;;;;13.45;11.90;;;;;;;15.28;95.11;95124.25;5053125;28;20392;-62
2023/05/27 00:17:44;;;;;;;15.88;11.60;;;;;;;15.31;94.94;95118.97;5054399;28;20254;-62
2023/05/27 00:20:12;;;;;;;13.20;11.95;;;;;;;15.23;95.10;95110.84;5054072;28;20226;-62
2023/05/27 00:22:39;;;;;;;13.77;12.35;;;;;;;15.16;95.25;95112.06;5053375;28;20588;-63
2023/05/27 00:25:08;;;;;;;16.73;12.07;;;;;;;15.21;95.07;95108.38;5052985;28;20210;-62
2023/05/27 00:27:35;;;;;;;11.57;10.23;;;;;;;15.23;93.29;95113.41;5052498;28;20352;-62
2023/05/27 00:30:02;;;;;;;11.05;10.15;;;;;;;15.31;92.83;95113.88;5053430;28;20404;-63
2023/05/27 00:32:29;;;;;;;11.60;10.27;;;;;;;15.39;92.42;95114.28;5052806;28;20715;-62
2023/05/27 00:34:55;;;;;;;9.95;9.07;;;;;;;15.37;92.41;95118.66;5052718;28;20205;-62
2023/05/27 00:37:22;;;;;;;10.93;7.85;;;;;;;15.38;91.75;95115.19;5051239;28;20275;-63
2023/05/27 00:39:49;;;;;;;11.88;8.15;;;;;;;15.39;91.40;95111.72;5053664;28;20278;-63
2023/05/27 00:42:17;;;;;;;9.45;8.48;;;;;;;15.36;92.60;95111.88;5054554;28;20344;-63
2023/05/27 00:44:44;;;;;;;13.05;9.27;;;;;;;15.47;92.70;95108.78;5052878;28;20297;-63
2023/05/27 00:47:11;;;;;;;9.38;8.68;;;;;;;15.70;91.95;95105.84;5051893;28;20675;-62
2023/05/27 00:49:38;;;;;;;11.82;10.05;;;;;;;15.74;92.32;95096.28;5052051;28;20238;-63
2023/05/27 00:52:05;;;;;;;10.50;9.68;;;;;;;15.73;92.11;95089.50;5053227;28;20313;-63
2023/05/27 00:54:32;;;;;;;9.80;8.93;;;;;;;15.70;91.83;95090.50;5054306;28;20293;-63
2023/05/27 00:56:59;;;;;;;9.50;8.70;;;;;;;15.78;92.22;95082.41;5051850;28;20206;-63
2023/05/27 00:59:27;;;;;;;9.80;8.27;;;;;;;15.84;92.10;95087.19;5050903;28;20290;-63
2023/05/27 01:01:54;;;;;;;10.63;9.73;;;;;;;15.90;92.16;95087.69;5052200;28;20703;-63
2023/05/27 01:04:21;;;;;;;36.70;26.02;;;;;;;15.96;92.44;95082.22;5052190;28;20206;-65
2023/05/27 01:06:59;;;;;;;34.22;24.00;;;;;;;16.08;92.13;95069.66;5053862;28;20297;-62
2023/05/27 01:09:33;;;;;;;13.15;11.38;;;;;;;16.11;91.91;95072.03;5051814;28;20866;-61
2023/05/27 01:12:07;;;;;;;11.55;9.80;;;;;;;16.15;91.94;95068.41;5049104;28;20803;-65
2023/05/27 01:14:37;;;;;;;11.80;10.70;;;;;;;16.13;92.18;95063.34;5051571;28;20705;-62
2023/05/27 01:17:07;;;;;;;9.68;8.88;;;;;;;16.13;92.27;95053.09;5052298;28;20285;-63
2023/05/27 01:19:35;;;;;;;8.75;8.00;;;;;;;16.19;91.92;95046.81;5055103;28;20194;-62
2023/05/27 01:22:03;;;;;;;8.85;8.05;;;;;;;16.19;92.06;95044.25;5054246;28;20252;-63
2023/05/27 01:24:33;;;;;;;8.48;7.75;;;;;;;16.16;92.32;95034.16;5053672;28;20285;-62
2023/05/27 01:27:01;;;;;;;7.82;7.13;;;;;;;16.15;92.37;95032.50;5055670;28;20202;-63
2023/05/27 01:29:28;;;;;;;8.00;7.40;;;;;;;16.23;91.76;95027.78;5054687;28;20297;-65
2023/05/27 01:32:02;;;;;;;7.93;7.32;;;;;;;16.21;91.89;95022.75;5057063;28;20317;-62
2023/05/27 01:34:37;;;;;;;7.97;7.38;;;;;;;16.24;92.08;95020.00;5056031;28;20351;-61
2023/05/27 01:37:07;;;;;;;8.48;7.78;;;;;;;16.19;92.20;95016.03;5057244;28;20210;-62
2023/05/27 01:39:36;;;;;;;8.80;7.93;;;;;;;16.16;92.29;95022.16;5055341;28;20210;-62
2023/05/27 01:42:05;;;;;;;8.60;8.00;;;;;;;16.12;92.39;95020.69;5057123;28;20230;-63
2023/05/27 01:44:32;;;;;;;7.88;7.32;;;;;;;16.05;92.16;95013.44;5052680;28;20737;-67
2023/05/27 01:47:00;;;;;;;9.35;8.63;;;;;;;16.01;92.61;95022.22;5054486;28;20290;-63
2023/05/27 01:49:27;;;;;;;8.77;8.05;;;;;;;16.07;92.11;95015.00;5055305;28;20206;-63
2023/05/27 01:51:54;;;;;;;9.07;8.18;;;;;;;16.00;92.11;95029.06;5053815;28;20693;-63
2023/05/27 01:54:21;;;;;;;10.15;9.25;;;;;;;15.95;92.59;95028.50;5054132;28;20229;-65
2023/05/27 01:56:49;;;;;;;9.13;8.25;;;;;;;15.99;92.42;95032.53;5054716;28;20337;-63
2023/05/27 01:59:15;;;;;;;11.82;9.63;;;;;;;15.94;92.75;95037.09;5054130;28;20230;-62
2023/05/27 02:01:43;;;;;;;13.05;9.95;;;;;;;15.86;93.02;95031.53;5055604;28;20285;-65
2023/05/27 02:04:09;;;;;;;11.43;10.32;;;;;;;15.84;93.00;95025.69;5054590;28;20626;-63
2023/05/27 02:06:36;;;;;;;12.75;11.75;;;;;;;15.75;93.44;95031.31;5053808;28;20718;-63
2023/05/27 02:09:04;;;;;;;12.68;11.40;;;;;;;15.67;93.68;95023.22;5056777;28;20234;-62
2023/05/27 02:11:31;;;;;;;12.75;11.52;;;;;;;15.64;93.43;95030.16;5053750;28;20707;-65
2023/05/27 02:14:01;;;;;;;13.70;12.32;;;;;;;15.57;93.92;95028.84;5055299;28;20504;-64
2023/05/27 02:16:27;;;;;;;12.60;11.50;;;;;;;15.53;94.48;95031.63;5054838;28;20293;-64
2023/05/27 02:18:54;;;;;;;12.48;11.32;;;;;;;15.59;94.24;95031.34;5054426;28;20700;-62
2023/05/27 02:21:21;;;;;;;13.82;11.40;;;;;;;15.59;94.25;95029.56;5055970;28;20206;-64
2023/05/27 02:23:48;;;;;;;11.73;10.57;;;;;;;15.62;94.15;95031.97;5055853;28;20779;-66
2023/05/27 02:26:14;;;;;;;14.02;11.80;;;;;;;15.66;94.21;95035.19;5054929;28;20297;-63
2023/05/27 02:28:41;;;;;;;17.35;11.13;;;;;;;15.64;94.20;95031.88;5053690;28;20373;-61
2023/05/27 02:31:09;;;;;;;12.80;11.65;;;;;;;15.69;94.05;95031.66;5054794;28;20293;-64
2023/05/27 02:33:36;;;;;;;12.05;11.05;;;;;;;15.76;93.51;95032.97;5053213;28;21011;-65
2023/05/27 02:36:02;;;;;;;11.77;10.65;;;;;;;15.86;93.09;95039.22;5053695;28;20305;-62
2023/05/27 02:38:29;;;;;;;11.13;10.07;;;;;;;15.88;92.82;95037.41;5054426;28;20338;-64
2023/05/27 02:40:56;;;;;;;11.98;11.05;;;;;;;15.87;92.57;95038.31;5052805;28;20217;-67
2023/05/27 02:43:23;;;;;;;14.05;10.82;;;;;;;15.93;92.37;95030.31;5051950;28;20292;-65
2023/05/27 02:45:49;;;;;;;12.38;10.95;;;;;;;15.96;92.18;95030.16;5052960;28;20272;-63
2023/05/27 02:48:17;;;;;;;10.85;9.75;;;;;;;15.94;91.94;95029.41;5053165;28;20684;-65
2023/05/27 02:50:44;;;;;;;15.63;10.98;;;;;;;15.99;91.95;95032.53;5053757;28;20715;-66
2023/05/27 02:53:11;;;;;;;11.30;10.30;;;;;;;15.95;92.00;95039.56;5053324;28;20255;-62
2023/05/27 02:55:38;;;;;;;12.20;11.00;;;;;;;15.87;92.37;95035.75;5053950;28;20365;-64
2023/05/27 02:58:05;;;;;;;12.73;11.40;;;;;;;15.86;92.34;95028.97;5052233;28;20751;-63
2023/05/27 03:00:32;;;;;;;17.20;12.52;;;;;;;15.84;92.42;95025.69;5053661;28;20216;-66
2023/05/27 03:02:58;;;;;;;12.57;11.45;;;;;;;15.85;92.53;95037.56;5053440;28;20293;-65
2023/05/27 03:05:27;;;;;;;12.35;11.35;;;;;;;15.89;92.01;95034.78;5055336;28;20310;-66
2023/05/27 03:07:53;;;;;;;11.93;10.95;;;;;;;15.91;91.92;95032.13;5055734;28;20382;-63
2023/05/27 03:10:20;;;;;;;12.85;11.50;;;;;;;15.96;91.64;95025.84;5054820;28;20212;-65
2023/05/27 03:12:47;;;;;;;11.45;10.45;;;;;;;15.99;91.30;95033.38;5053878;28;20309;-66
2023/05/27 03:15:14;;;;;;;11.98;10.90;;;;;;;16.01;91.35;95023.03;5054187;28;20285;-65
2023/05/27 03:17:41;;;;;;;11.90;10.80;;;;;;;16.06;90.64;95018.47;5053108;28;20205;-62
2023/05/27 03:20:08;;;;;;;11.13;9.32;;;;;;;16.04;90.24;95033.13;5053678;28;20335;-64
2023/05/27 03:22:37;;;;;;;12.15;11.05;;;;;;;16.02;91.08;95034.94;5053143;28;20209;-62
2023/05/27 03:25:04;;;;;;;12.40;11.48;;;;;;;16.11;91.25;95034.41;5053933;28;20204;-62
2023/05/27 03:27:30;;;;;;;12.68;11.50;;;;;;;16.56;90.55;95030.19;5053664;28;20376;-62
2023/05/27 03:29:57;;;;;;;10.27;9.38;;;;;;;17.24;88.19;95027.91;5054801;28;20506;-68
2023/05/27 03:32:24;;;;;;;10.02;9.13;;;;;;;17.88;84.65;95032.50;5052684;28;20263;-66
2023/05/27 03:34:51;;;;;;;10.63;8.75;;;;;;;17.96;81.34;95030.28;5055124;28;20203;-65
2023/05/27 03:37:18;;;;;;;10.88;9.35;;;;;;;17.52;82.42;95027.88;5055627;28;20206;-65
2023/05/27 03:39:46;;;;;;;9.65;8.95;;;;;;;17.27;83.47;95038.81;5053280;28;20348;-66
2023/05/27 03:42:12;;;;;;;13.10;9.20;;;;;;;17.04;84.01;95039.38;5053115;28;20285;-63
2023/05/27 03:44:39;;;;;;;10.20;9.30;;;;;;;16.83;84.80;95046.56;5053363;28;20233;-65
2023/05/27 03:47:06;;;;;;;9.82;9.00;;;;;;;16.65;85.60;95050.19;5054850;28;20675;-65
2023/05/27 03:49:33;;;;;;;9.50;8.73;;;;;;;16.54;86.24;95052.53;5054563;28;20285;-65
2023/05/27 03:52:00;;;;;;;15.95;8.90;;;;;;;16.47;86.97;95056.34;5054640;28;20317;-66
2023/05/27 03:54:26;;;;;;;9.32;8.43;;;;;;;16.54;86.82;95049.97;5053739;28;20225;-63
2023/05/27 03:56:54;;;;;;;9.90;9.00;;;;;;;16.69;86.30;95064.50;5054581;28;20344;-66
2023/05/27 03:59:21;;;;;;;9.57;8.68;;;;;;;16.44;86.90;95038.56;5056312;28;20340;-65
2023/05/27 04:01:48;;;;;;;10.45;9.43;;;;;;;16.47;87.32;95052.06;5054926;28;20198;-65
2023/05/27 04:04:15;;;;;;;9.18;8.38;;;;;;;16.46;87.71;95047.00;5053108;28;20202;-66
2023/05/27 04:06:42;;;;;;;9.98;9.07;;;;;;;16.57;87.75;95042.09;5053272;28;20675;-63
2023/05/27 04:09:09;;;;;;;9.05;8.25;;;;;;;16.53;88.06;95048.31;5054095;28;20213;-62
2023/05/27 04:11:36;;;;;;;9.55;8.85;;;;;;;16.51;87.80;95027.88;5052820;28;20577;-64
2023/05/27 04:14:06;;;;;;;9.43;8.65;;;;;;;16.71;86.97;95049.84;5053536;28;20226;-65
2023/05/27 04:16:34;;;;;;;8.95;8.20;;;;;;;16.77;86.02;95039.25;5054534;28;20696;-66
2023/05/27 04:19:01;;;;;;;8.43;7.60;;;;;;;16.65;86.47;95045.06;5054128;28;21909;-66
2023/05/27 04:21:28;;;;;;;7.78;7.18;;;;;;;16.70;86.51;95040.50;5054522;28;20293;-64
2023/05/27 04:23:54;;;;;;;6.90;6.50;;;;;;;16.80;86.03;95044.19;5053604;28;20940;-63
2023/05/27 04:26:21;;;;;;;7.18;5.90;;;;;;;17.02;85.36;95048.06;5053322;28;20288;-66
2023/05/27 04:28:49;;;;;;;5.47;5.18;;;;;;;17.34;84.22;95047.78;5054067;28;20210;-66
2023/05/27 04:31:17;;;;;;;4.75;4.45;;;;;;;18.26;80.64;95050.69;5053058;28;20289;-67
2023/05/27 04:33:44;;;;;;;4.78;4.38;;;;;;;18.82;77.51;95043.59;5053049;28;20316;-65
2023/05/27 04:36:11;;;;;;;5.15;4.35;;;;;;;19.18;74.34;95053.22;5053807;28;20516;-67
2023/05/27 04:38:37;;;;;;;5.18;4.88;;;;;;;19.34;73.98;95060.72;5052548;28;20259;-67
2023/05/27 04:41:04;;;;;;;4.97;4.57;;;;;;;19.60;73.11;95057.22;5054531;28;20293;-67
2023/05/27 04:43:33;;;;;;;5.35;4.95;;;;;;;20.11;70.96;95061.41;5052221;28;20195;-66
2023/05/27 04:46:00;;;;;;;5.53;5.13;;;;;;;20.55;68.47;95061.66;5053740;28;20317;-66
2023/05/27 04:48:28;;;;;;;4.80;4.57;;;;;;;20.45;68.74;95063.28;5054755;28;20706;-68
2023/05/27 04:50:56;;;;;;;4.95;4.65;;;;;;;20.20;69.62;95061.59;5055028;28;20274;-67
2023/05/27 04:53:23;;;;;;;4.53;4.10;;;;;;;19.98;70.19;95054.56;5057788;28;20225;-67
2023/05/27 04:55:51;;;;;;;4.68;4.28;;;;;;;19.92;70.56;95056.75;5057646;28;20285;-67
2023/05/27 04:58:17;;;;;;;7.13;4.22;;;;;;;19.96;70.21;95058.19;5057676;28;20225;-66
2023/05/27 05:00:52;;;;;;;6.32;4.20;;;;;;;19.98;70.39;95061.47;5057894;28;20246;-65
2023/05/27 05:03:21;;;;;;;4.78;4.47;;;;;;;20.18;69.95;95058.31;5057410;28;20201;-66
2023/05/27 05:05:51;;;;;;;4.53;4.20;;;;;;;20.47;68.66;95061.41;5056875;28;20278;-68
2023/05/27 05:08:17;;;;;;;5.45;5.07;;;;;;;20.65;67.94;95056.66;5057185;28;20321;-64
2023/05/27 05:10:44;;;;;;;5.43;4.95;;;;;;;20.78;67.44;95052.25;5056258;28;20739;-68
2023/05/27 05:13:11;;;;;;;5.25;4.95;;;;;;;20.98;67.16;95054.19;5056764;28;20356;-66
2023/05/27 05:15:38;;;;;;;5.75;5.20;;;;;;;21.10;67.00;95056.78;5054510;28;20312;-63
2023/05/27 05:18:05;;;;;;;5.22;4.93;;;;;;;21.11;67.13;95059.25;5053812;28;20296;-66
2023/05/27 05:20:31;;;;;;;4.95;4.60;;;;;;;21.09;66.43;95060.28;5054094;28;20387;-64
2023/05/27 05:22:59;;;;;;;5.63;5.22;;;;;;;20.86;67.11;95057.66;5055710;28;20297;-65
2023/05/27 05:25:26;;;;;;;6.15;5.65;;;;;;;20.42;68.51;95065.25;5054410;28;20638;-66
2023/05/27 05:27:53;;;;;;;6.68;6.18;;;;;;;20.18;69.37;95063.47;5054730;28;20740;-68
2023/05/27 05:30:20;;;;;;;5.82;5.32;;;;;;;19.94;70.61;95070.34;5057059;28;20194;-64
2023/05/27 05:32:46;;;;;;;6.13;5.80;;;;;;;19.81;71.32;95065.22;5056359;28;20435;-67
2023/05/27 05:35:13;;;;;;;6.60;6.07;;;;;;;19.77;71.96;95074.13;5057627;28;20913;-64
2023/05/27 05:37:40;;;;;;;6.43;5.93;;;;;;;19.67;72.65;95078.25;5057682;28;20329;-64
2023/05/27 05:40:11;;;;;;;6.63;6.05;;;;;;;19.83;72.65;95070.28;5057094;28;20798;-64
2023/05/27 05:42:37;;;;;;;6.18;5.68;;;;;;;19.92;71.82;95072.22;5055907;28;20211;-64
2023/05/27 05:45:05;;;;;;;6.45;6.15;;;;;;;20.02;71.58;95074.06;5056885;28;20285;-67
2023/05/27 05:47:32;;;;;;;6.00;5.40;;;;;;;20.06;70.57;95054.00;5055277;28;20225;-65
2023/05/27 05:49:58;;;;;;;6.13;5.72;;;;;;;20.19;70.83;95077.19;5054041;28;20287;-67
2023/05/27 05:52:25;;;;;;;9.93;5.95;;;;;;;20.37;70.66;95066.41;5052974;28;20530;-65
2023/05/27 05:54:52;;;;;;;6.43;5.82;;;;;;;20.69;69.53;95068.41;5056501;28;20667;-65
2023/05/27 05:57:20;;;;;;;6.32;5.72;;;;;;;20.83;68.99;95073.38;5055967;28;20297;-66
2023/05/27 05:59:46;;;;;;;8.52;6.28;;;;;;;20.78;68.83;95080.66;5054973;28;20238;-63
2023/05/27 06:02:13;;;;;;;12.23;7.00;;;;;;;20.55;69.56;95076.31;5055269;28;20238;-64
2023/05/27 06:04:40;;;;;;;7.50;6.70;;;;;;;20.36;70.39;95075.03;5052381;28;20245;-64
2023/05/27 06:07:07;;;;;;;7.45;6.75;;;;;;;20.02;71.25;95081.78;5055740;28;20241;-62
2023/05/27 06:09:33;;;;;;;6.85;6.35;;;;;;;19.75;72.47;95082.91;5055549;28;20293;-65
2023/05/27 06:12:00;;;;;;;7.47;6.93;;;;;;;19.63;73.85;95082.78;5054262;28;20893;-66
2023/05/27 06:14:28;;;;;;;8.35;7.28;;;;;;;19.49;75.02;95085.47;5055650;28;20388;-63
2023/05/27 06:16:54;;;;;;;7.55;6.80;;;;;;;19.64;73.55;95076.72;5055644;28;20321;-67
2023/05/27 06:19:21;;;;;;;8.68;6.70;;;;;;;19.60;73.74;95077.84;5054703;28;20293;-61
2023/05/27 06:21:48;;;;;;;7.28;6.55;;;;;;;19.56;74.02;95080.72;5056807;28;20289;-63
2023/05/27 06:24:15;;;;;;;7.72;6.93;;;;;;;19.56;74.53;95076.41;5055939;28;20294;-62
2023/05/27 06:26:41;;;;;;;9.73;7.38;;;;;;;19.70;74.02;95084.03;5053630;28;20232;-64
2023/05/27 06:29:08;;;;;;;8.15;7.40;;;;;;;19.74;74.47;95081.25;5056461;28;20316;-65
2023/05/27 06:31:36;;;;;;;10.07;7.38;;;;;;;19.83;73.59;95084.00;5054524;28;20771;-62
2023/05/27 06:34:03;;;;;;;7.35;6.85;;;;;;;19.93;73.15;95089.34;5053091;28;20338;-66
2023/05/27 06:36:29;;;;;;;8.85;7.03;;;;;;;19.83;73.80;95096.88;5054765;28;20724;-66
2023/05/27 06:38:57;;;;;;;8.05;7.43;;;;;;;19.72;74.89;95096.81;5054747;28;20237;-67
2023/05/27 06:41:23;;;;;;;8.32;7.55;;;;;;;19.83;74.86;95096.88;5052929;28;20332;-66
2023/05/27 06:43:50;;;;;;;8.23;7.50;;;;;;;19.95;74.50;95092.63;5055006;28;20201;-65
2023/05/27 06:46:17;;;;;;;8.95;7.93;;;;;;;20.08;74.37;95095.16;5053264;28;20681;-67
2023/05/27 06:48:45;;;;;;;7.75;7.15;;;;;;;20.37;73.40;95089.63;5053395;28;21655;-66
2023/05/27 06:51:11;;;;;;;8.18;7.47;;;;;;;20.70;71.47;95095.88;5054207;28;21238;-65
2023/05/27 06:53:38;;;;;;;8.05;7.25;;;;;;;20.89;71.10;95096.19;5054084;28;21219;-65
2023/05/27 06:56:05;;;;;;;7.43;6.72;;;;;;;21.10;68.84;95095.53;5053583;28;20298;-68
2023/05/27 06:58:32;;;;;;;8.07;7.43;;;;;;;21.09;69.20;95102.44;5052114;28;20348;-66
2023/05/27 07:00:59;;;;;;;8.15;7.47;;;;;;;21.15;69.40;95101.19;5053999;28;20325;-62
2023/05/27 07:03:25;;;;;;;8.00;7.18;;;;;;;21.83;68.33;95097.75;5054315;28;20347;-67
2023/05/27 07:05:53;;;;;;;8.75;6.60;;;;;;;23.19;63.94;95098.09;5053948;28;20296;-67
2023/05/27 07:08:20;;;;;;;8.57;6.60;;;;;;;24.18;59.66;95095.69;5054774;28;20348;-64
2023/05/27 07:10:47;;;;;;;8.68;6.88;;;;;;;24.70;57.02;95101.53;5053734;28;20308;-62
2023/05/27 07:13:15;;;;;;;9.68;6.32;;;;;;;24.64;57.44;95100.31;5053685;28;20234;-65
2023/05/27 07:15:43;;;;;;;6.88;6.30;;;;;;;24.56;57.30;95099.31;5052504;28;20205;-63
2023/05/27 07:18:09;;;;;;;6.35;5.72;;;;;;;24.65;57.06;95104.53;5055223;28;20706;-66
2023/05/27 07:20:36;;;;;;;11.00;7.13;;;;;;;24.42;56.88;95103.97;5053070;28;20714;-66
2023/05/27 07:23:04;;;;;;;7.35;6.47;;;;;;;24.14;58.22;95106.47;5054611;28;20227;-67
2023/05/27 07:25:31;;;;;;;7.15;6.60;;;;;;;23.70;59.81;95103.31;5054307;28;20281;-64
2023/05/27 07:27:57;;;;;;;9.07;7.55;;;;;;;23.33;61.20;95101.16;5054193;28;20968;-66
2023/05/27 07:30:24;;;;;;;7.28;6.68;;;;;;;22.95;62.72;95109.53;5053386;28;20337;-64
2023/05/27 07:32:51;;;;;;;9.32;7.82;;;;;;;22.64;63.75;95102.56;5055273;28;20752;-64
2023/05/27 07:35:18;;;;;;;7.65;7.05;;;;;;;22.49;64.59;95106.38;5053435;28;20705;-66
2023/05/27 07:37:44;;;;;;;7.97;7.30;;;;;;;22.63;64.28;95100.91;5052558;28;20213;-66
2023/05/27 07:40:12;;;;;;;10.30;8.88;;;;;;;22.57;64.07;95078.06;5051808;28;20696;-67
2023/05/27 07:42:39;;;;;;;8.25;7.55;;;;;;;22.75;64.11;95097.34;5054030;28;20747;-66
2023/05/27 07:45:07;;;;;;;8.88;7.45;;;;;;;22.84;63.75;95101.78;5053692;28;20229;-66
2023/05/27 07:47:33;;;;;;;8.77;7.90;;;;;;;22.95;62.98;95104.34;5054183;28;20314;-67
2023/05/27 07:50:00;;;;;;;9.35;8.02;;;;;;;22.88;63.69;95103.19;5052084;28;20799;-67
2023/05/27 07:52:27;;;;;;;10.55;8.82;;;;;;;22.78;64.90;95107.47;5054956;28;20964;-67
2023/05/27 07:54:53;;;;;;;14.05;10.82;;;;;;;22.84;64.42;95099.19;5053063;28;20318;-68
2023/05/27 07:57:21;;;;;;;10.32;9.10;;;;;;;22.89;63.35;95104.00;5053320;28;20337;-68
2023/05/27 07:59:48;;;;;;;10.82;8.10;;;;;;;22.64;63.80;95099.97;5052195;28;20293;-66
2023/05/27 08:02:15;;;;;;;18.75;14.00;;;;;;;22.44;64.86;95103.31;5051882;28;20325;-64
2023/05/27 08:04:43;;;;;;;14.65;10.75;;;;;;;22.24;65.73;95107.50;5053523;28;20202;-66
2023/05/27 08:07:10;;;;;;;11.38;10.27;;;;;;;22.12;66.46;95113.63;5053648;28;20236;-63
2023/05/27 08:09:36;;;;;;;11.95;10.15;;;;;;;22.11;66.54;95109.38;5055502;28;20293;-64
2023/05/27 08:12:05;;;;;;;12.15;10.98;;;;;;;22.26;65.70;95114.22;5053174;28;20288;-65
2023/05/27 08:14:33;;;;;;;9.88;8.82;;;;;;;22.53;65.43;95118.13;5052939;28;20238;-67
2023/05/27 08:17:00;;;;;;;9.90;7.85;;;;;;;22.69;64.18;95114.19;5052998;28;20301;-67
2023/05/27 08:19:28;;;;;;;16.65;11.27;;;;;;;22.69;63.23;95108.19;5054295;28;20283;-66
2023/05/27 08:21:55;;;;;;;8.10;7.25;;;;;;;22.48;63.07;95107.31;5054261;28;20297;-68
2023/05/27 08:24:22;;;;;;;6.13;5.72;;;;;;;22.02;62.79;95108.38;5056541;28;20201;-62
2023/05/27 08:26:49;;;;;;;8.27;6.70;;;;;;;21.76;64.81;95112.09;5057918;28;20210;-66
2023/05/27 08:29:16;;;;;;;12.15;10.95;;;;;;;21.50;66.12;95112.34;5059031;28;20714;-68
2023/05/27 08:31:44;;;;;;;24.50;18.83;;;;;;;21.46;67.02;95105.75;5056244;28;20355;-67
2023/05/27 08:34:11;;;;;;;52.90;36.25;;;;;;;21.52;67.52;95115.63;5056122;28;20402;-64
2023/05/27 08:36:38;;;;;;;20.25;14.65;;;;;;;21.67;67.24;95117.03;5058399;28;20332;-66
2023/05/27 08:39:05;;;;;;;8.27;7.35;;;;;;;21.88;66.84;95121.50;5056958;28;20660;-67
2023/05/27 08:41:32;;;;;;;31.83;24.75;;;;;;;21.84;66.84;95115.72;5057359;28;20262;-69
2023/05/27 08:43:59;;;;;;;15.60;12.30;;;;;;;21.83;65.84;95119.25;5058316;28;20309;-69
2023/05/27 08:46:27;;;;;;;9.90;8.30;;;;;;;21.63;66.41;95115.63;5057476;28;20206;-67
2023/05/27 08:48:56;;;;;;;13.73;12.32;;;;;;;21.48;67.26;95110.78;5058337;28;20206;-68
2023/05/27 08:51:24;;;;;;;7.75;6.95;;;;;;;21.33;67.66;95116.16;5056409;28;20226;-66
2023/05/27 08:53:51;;;;;;;19.30;9.93;;;;;;;21.22;68.16;95112.75;5056376;28;20372;-67
2023/05/27 08:56:21;;;;;;;8.80;7.80;;;;;;;21.26;68.57;95111.59;5058257;28;20202;-67
2023/05/27 08:58:48;;;;;;;11.38;7.88;;;;;;;21.09;68.17;95104.22;5055163;28;20204;-65
2023/05/27 09:01:18;;;;;;;9.70;8.75;;;;;;;21.00;68.47;95114.31;5055975;28;20738;-65
2023/05/27 09:03:45;;;;;;;8.98;8.20;;;;;;;20.92;69.26;95110.63;5057394;28;20202;-68
2023/05/27 09:06:13;;;;;;;9.48;7.53;;;;;;;20.88;69.27;95106.63;5056749;28;20230;-65
2023/05/27 09:08:39;;;;;;;17.83;9.40;;;;;;;20.79;67.91;95104.75;5056947;28;20233;-65
2023/05/27 09:11:07;;;;;;;11.20;7.90;;;;;;;20.69;68.79;95099.41;5057700;28;20286;-69
2023/05/27 09:13:34;;;;;;;6.93;6.28;;;;;;;20.64;68.72;95106.66;5052621;28;20719;-68
2023/05/27 09:16:03;;;;;;;7.60;6.90;;;;;;;20.54;68.26;95100.53;5054306;28;20320;-67
2023/05/27 09:18:30;;;;;;;7.80;6.07;;;;;;;20.67;68.41;95101.28;5056253;28;20210;-63
2023/05/27 09:20:58;;;;;;;6.22;5.20;;;;;;;20.67;67.28;95109.03;5056193;28;20233;-66
2023/05/27 09:23:26;;;;;;;6.88;6.22;;;;;;;20.54;67.93;95087.63;5053924;28;20199;-67
2023/05/27 09:25:53;;;;;;;11.23;5.45;;;;;;;20.28;67.35;95103.19;5054381;28;20206;-64
2023/05/27 09:28:24;;;;;;;7.22;6.35;;;;;;;20.07;69.36;95096.94;5057213;28;20305;-68
2023/05/27 09:31:01;;;;;;;7.20;6.47;;;;;;;20.03;70.63;95095.53;5056955;28;20221;-63
2023/05/27 09:33:28;;;;;;;8.35;6.85;;;;;;;19.94;70.75;95089.25;5055611;28;20402;-64
2023/05/27 09:35:55;;;;;;;7.60;5.88;;;;;;;19.90;70.79;95098.13;5056611;28;20202;-67
2023/05/27 09:38:21;;;;;;;7.47;6.18;;;;;;;19.86;70.61;95093.28;5057858;28;20368;-67
2023/05/27 09:40:49;;;;;;;6.40;5.88;;;;;;;19.81;70.53;95075.53;5056790;28;20293;-67
2023/05/27 09:43:16;;;;;;;7.95;7.15;;;;;;;20.07;70.28;95086.59;5056402;28;20238;-65
2023/05/27 09:45:45;;;;;;;6.68;6.18;;;;;;;20.34;70.03;95092.41;5056707;28;21457;-66
2023/05/27 09:48:13;;;;;;;7.07;6.63;;;;;;;20.59;68.19;95083.75;5055189;28;20293;-65
2023/05/27 09:50:41;;;;;;;6.70;6.20;;;;;;;20.75;67.54;95080.88;5055792;28;20569;-65
2023/05/27 09:53:09;;;;;;;12.00;6.65;;;;;;;20.96;66.52;95081.06;5057157;28;20216;-65
2023/05/27 09:55:36;;;;;;;6.18;5.68;;;;;;;21.08;64.80;95079.31;5052714;28;20290;-65
2023/05/27 09:58:04;;;;;;;6.10;5.47;;;;;;;21.24;64.66;95080.69;5056361;28;20302;-66
2023/05/27 10:00:32;;;;;;;5.60;5.07;;;;;;;21.46;62.98;95077.28;5056556;28;20355;-63
2023/05/27 10:03:02;;;;;;;4.95;4.55;;;;;;;21.75;62.45;95082.00;5054970;28;20760;-65
2023/05/27 10:05:29;;;;;;;8.95;7.57;;;;;;;22.19;61.06;95089.75;5053925;28;20225;-66
2023/05/27 10:07:56;;;;;;;6.93;6.30;;;;;;;22.53;59.52;95081.84;5055166;28;21002;-66
2023/05/27 10:10:23;;;;;;;4.85;4.38;;;;;;;22.82;58.71;95075.19;5054205;28;20297;-65
2023/05/27 10:12:53;;;;;;;5.25;4.75;;;;;;;23.04;57.57;95063.88;5054222;28;20294;-67
2023/05/27 10:15:27;;;;;;;6.63;5.35;;;;;;;23.37;56.41;95078.41;5055104;28;20230;-68
2023/05/27 10:17:55;;;;;;;4.72;4.32;;;;;;;23.39;56.60;95081.69;5056155;28;20210;-66
2023/05/27 10:20:29;;;;;;;5.03;4.55;;;;;;;23.20;56.22;95068.63;5053978;28;20695;-67
2023/05/27 10:22:56;;;;;;;4.22;3.88;;;;;;;22.85;56.39;95061.97;5055699;28;20749;-66
2023/05/27 10:25:36;;;;;;;4.70;4.30;;;;;;;22.89;57.60;95073.75;5053855;28;20298;-65
2023/05/27 10:28:02;;;;;;;4.30;4.07;;;;;;;23.28;57.38;95071.38;5055366;28;20230;-67
2023/05/27 10:30:30;;;;;;;4.07;3.78;;;;;;;23.47;55.76;95066.31;5055964;28;20285;-66
2023/05/27 10:32:57;;;;;;;5.57;5.15;;;;;;;23.40;54.99;95063.41;5054961;28;20316;-66
2023/05/27 10:35:26;;;;;;;4.78;4.45;;;;;;;23.53;54.97;95062.38;5054559;28;20328;-66
2023/05/27 10:37:53;;;;;;;4.72;4.30;;;;;;;23.55;54.42;95066.50;5053810;28;20302;-65
2023/05/27 10:40:25;;;;;;;7.95;4.35;;;;;;;23.33;54.34;95056.25;5055586;28;20306;-65
2023/05/27 10:43:00;;;;;;;4.40;4.10;;;;;;;23.54;54.13;95054.47;5055083;28;20219;-65
2023/05/27 10:45:34;;;;;;;5.10;4.13;;;;;;;23.72;53.17;95052.94;5054507;28;20232;-64
2023/05/27 10:48:01;;;;;;;4.85;4.50;;;;;;;23.61;53.08;95045.22;5053749;28;21659;-61
2023/05/27 10:50:33;;;;;;;4.78;4.28;;;;;;;23.17;53.52;95048.97;5054545;28;20226;-61
2023/05/27 10:53:01;;;;;;;6.40;3.80;;;;;;;22.37;54.28;95051.19;5055397;28;21047;-61
2023/05/27 10:55:27;;;;;;;3.83;3.63;;;;;;;22.23;55.87;95044.56;5053028;28;20225;-66
2023/05/27 10:57:55;;;;;;;4.57;4.18;;;;;;;22.04;57.23;95045.16;5053076;28;20654;-63
2023/05/27 11:00:24;;;;;;;4.10;3.90;;;;;;;21.86;58.04;95046.59;5055975;28;20524;-62
2023/05/27 11:02:53;;;;;;;6.97;4.85;;;;;;;21.86;58.80;95049.16;5054258;28;20234;-61
2023/05/27 11:05:20;;;;;;;4.95;4.50;;;;;;;22.02;57.86;95046.25;5054247;28;20594;-61
2023/05/27 11:07:47;;;;;;;6.63;4.03;;;;;;;21.98;57.52;95042.22;5054776;28;20399;-62
2023/05/27 11:10:14;;;;;;;4.43;4.15;;;;;;;22.03;57.87;95050.47;5054098;28;20825;-61
2023/05/27 11:12:45;;;;;;;4.93;4.53;;;;;;;21.83;58.53;95046.81;5053473;28;20256;-61
2023/05/27 11:15:12;;;;;;;6.65;4.40;;;;;;;21.68;59.17;95033.31;5052755;28;20221;-61
2023/05/27 11:17:38;;;;;;;4.93;4.50;;;;;;;21.83;59.48;95030.47;5054035;28;20957;-63
2023/05/27 11:20:08;;;;;;;6.05;4.90;;;;;;;22.27;58.16;95027.81;5053347;28;20309;-61
2023/05/27 11:22:36;;;;;;;5.32;4.82;;;;;;;22.74;57.01;95023.16;5051141;28;20203;-63
2023/05/27 11:25:05;;;;;;;8.02;4.45;;;;;;;23.00;56.32;95019.25;5052393;28;21127;-62
2023/05/27 11:27:36;;;;;;;5.13;4.65;;;;;;;22.67;53.89;95022.00;5052442;28;20617;-61
2023/05/27 11:30:09;;;;;;;5.40;3.80;;;;;;;22.20;56.96;95024.09;5053039;28;20300;-61